createdAt,value
2022-11-02T00:01:59.719Z,5.47
2022-11-02T00:04:57.774Z,4.90
2022-11-02T00:08:17.206Z,5.45
2022-11-02T00:11:23.230Z,4.82
2022-11-02T00:23:03.867Z,4.50
2022-11-02T00:25:58.692Z,4.63
2022-11-02T00:29:12.178Z,4.03
2022-11-02T00:32:14.930Z,4.00
2022-11-02T00:35:11.819Z,3.47
2022-11-02T00:37:41.277Z,4.05
2022-11-02T00:46:03.178Z,4.05
2022-11-02T00:48:53.770Z,4.15
2022-11-02T00:54:43.408Z,4.88
2022-11-02T00:58:02.630Z,4.65
2022-11-02T01:00:54.834Z,4.60
2022-11-02T01:03:22.928Z,5.22
2022-11-02T01:06:47.246Z,4.97
2022-11-02T01:09:47.295Z,5.97
2022-11-02T01:12:15.579Z,5.40
2022-11-02T01:14:42.843Z,6.07
2022-11-02T01:17:15.463Z,6.38
2022-11-02T01:20:07.848Z,6.80
2022-11-02T01:23:00.647Z,7.03
2022-11-02T01:25:36.940Z,6.57
2022-11-02T01:28:10.816Z,7.32
2022-11-02T01:31:09.653Z,7.90
2022-11-02T01:33:47.116Z,9.48
2022-11-02T01:36:39.755Z,9.82
2022-11-02T01:39:18.918Z,8.05
2022-11-02T01:42:01.900Z,6.93
2022-11-02T01:45:09.783Z,6.25
2022-11-02T01:48:04.473Z,6.40
2022-11-02T01:51:01.942Z,6.40
2022-11-02T01:56:37.744Z,6.43
2022-11-02T01:59:55.758Z,6.38
2022-11-02T02:10:00.625Z,5.93
2022-11-02T02:12:51.143Z,5.32
2022-11-02T02:15:47.360Z,5.40
2022-11-02T02:19:05.649Z,5.43
2022-11-02T02:22:36.321Z,5.15
2022-11-02T02:26:13.635Z,5.05
2022-11-02T02:33:09.498Z,4.30
2022-11-02T02:40:04.648Z,4.03
2022-11-02T02:46:34.828Z,4.55
2022-11-02T02:56:30.287Z,3.63
2022-11-02T03:00:06.109Z,4.20
2022-11-02T03:03:14.295Z,4.07
2022-11-02T03:06:24.943Z,4.13
2022-11-02T03:10:44.275Z,4.25
2022-11-02T03:14:16.909Z,4.40
2022-11-02T03:17:23.933Z,4.40
2022-11-02T03:20:35.846Z,4.60
2022-11-02T03:23:43.082Z,4.63
2022-11-02T03:27:08.249Z,5.00
2022-11-02T03:33:18.850Z,5.28
2022-11-02T03:36:32.617Z,5.38
2022-11-02T03:39:31.456Z,4.70
2022-11-02T03:42:28.724Z,5.03
2022-11-02T03:45:34.387Z,4.95
2022-11-02T03:48:27.993Z,4.95
2022-11-02T03:51:25.306Z,4.90
2022-11-02T03:54:24.723Z,5.15
2022-11-02T03:57:31.804Z,4.80
2022-11-02T04:03:29.000Z,5.10
2022-11-02T04:06:20.660Z,4.43
2022-11-02T04:08:56.257Z,5.07
2022-11-02T04:12:10.252Z,5.32
2022-11-02T04:23:54.438Z,5.10
2022-11-02T04:26:48.517Z,4.88
2022-11-02T04:36:19.686Z,5.32
2022-11-02T04:39:28.945Z,5.75
2022-11-02T04:42:13.576Z,5.68
2022-11-02T04:45:43.596Z,5.50
2022-11-02T04:48:23.883Z,5.47
2022-11-02T04:51:17.314Z,5.80
2022-11-02T04:57:22.449Z,6.30
2022-11-02T04:59:53.043Z,6.93
2022-11-02T05:02:20.381Z,6.72
2022-11-02T05:04:52.006Z,7.28
2022-11-02T05:13:30.934Z,7.28
2022-11-02T05:16:27.798Z,7.72
2022-11-02T05:19:09.923Z,7.35
2022-11-02T05:21:53.876Z,7.55
2022-11-02T05:24:54.163Z,7.60
2022-11-02T05:27:33.002Z,6.95
2022-11-02T05:30:08.215Z,7.32
2022-11-02T05:32:35.973Z,7.00
2022-11-02T05:35:16.367Z,6.22
2022-11-02T05:38:00.781Z,6.43
2022-11-02T05:40:58.981Z,6.53
2022-11-02T05:50:03.598Z,7.03
2022-11-02T05:52:46.013Z,7.18
2022-11-02T05:55:54.567Z,5.78
2022-11-02T05:58:30.343Z,6.60
2022-11-02T06:01:20.525Z,6.93
2022-11-02T06:04:00.425Z,6.72
2022-11-02T06:06:36.717Z,7.10
2022-11-02T06:09:07.427Z,8.15
2022-11-02T06:11:45.817Z,8.32
2022-11-02T06:14:32.891Z,7.43
2022-11-02T06:16:59.844Z,7.30
2022-11-02T06:19:30.717Z,7.35
2022-11-02T06:22:00.734Z,7.82
2022-11-02T06:24:29.950Z,7.45
2022-11-02T06:26:58.361Z,6.47
2022-11-02T06:29:26.294Z,6.18
2022-11-02T06:31:57.177Z,6.72
2022-11-02T06:34:24.473Z,6.78
2022-11-02T06:36:53.730Z,6.30
2022-11-02T06:39:22.113Z,6.80
2022-11-02T06:41:52.497Z,6.70
2022-11-02T06:44:19.621Z,6.55
2022-11-02T06:46:49.510Z,6.95
2022-11-02T06:49:46.811Z,7.90
2022-11-02T06:52:21.773Z,6.90
2022-11-02T06:54:48.865Z,7.43
2022-11-02T06:57:16.131Z,6.32
2022-11-02T06:59:47.750Z,6.63
2022-11-02T07:02:17.843Z,7.40
2022-11-02T07:05:01.577Z,6.90
2022-11-02T07:07:30.138Z,7.53
2022-11-02T07:09:59.502Z,6.97
2022-11-02T07:12:30.306Z,7.63
2022-11-02T07:14:57.529Z,7.43
2022-11-02T07:17:33.842Z,7.50
2022-11-02T07:20:12.576Z,7.55
2022-11-02T07:25:10.817Z,8.48
2022-11-02T07:27:47.037Z,8.48
2022-11-02T07:30:18.625Z,9.02
2022-11-02T07:32:50.752Z,8.98
2022-11-02T07:35:19.906Z,8.95
2022-11-02T07:37:58.616Z,8.25
2022-11-02T07:44:06.226Z,8.80
2022-11-02T07:47:03.050Z,9.15
2022-11-02T07:52:27.845Z,8.45
2022-11-02T07:55:05.438Z,8.52
2022-11-02T07:57:38.265Z,9.07
2022-11-02T08:00:10.368Z,9.57
2022-11-02T08:02:46.095Z,9.38
2022-11-02T08:05:15.520Z,8.85
2022-11-02T08:07:53.365Z,9.30
2022-11-02T08:10:40.829Z,8.80
2022-11-02T08:13:41.475Z,9.20
2022-11-02T08:16:19.668Z,9.57
2022-11-02T08:19:04.428Z,8.32
2022-11-02T08:21:51.850Z,8.73
2022-11-02T08:24:26.580Z,8.90
2022-11-02T08:27:28.528Z,8.70
2022-11-02T08:30:00.752Z,8.95
2022-11-02T08:32:38.450Z,9.07
2022-11-02T08:35:09.664Z,8.93
2022-11-02T08:41:13.705Z,9.30
2022-11-02T08:47:08.437Z,8.43
2022-11-02T08:49:59.525Z,10.25
2022-11-02T08:55:20.778Z,10.95
2022-11-02T08:58:25.968Z,11.60
2022-11-02T09:01:30.864Z,10.77
2022-11-02T09:04:05.055Z,10.93
2022-11-02T09:07:24.076Z,9.77
2022-11-02T09:10:07.456Z,10.55
2022-11-02T09:13:51.585Z,11.40
2022-11-02T09:23:06.453Z,13.40
2022-11-02T09:25:39.865Z,12.70
2022-11-02T09:28:23.285Z,14.77
2022-11-02T09:31:16.853Z,13.88
2022-11-02T09:33:48.825Z,13.48
2022-11-02T09:38:58.378Z,14.30
2022-11-02T09:42:35.178Z,14.55
2022-11-02T09:45:22.043Z,14.23
2022-11-02T09:48:27.795Z,13.90
2022-11-02T09:57:35.088Z,16.08
2022-11-02T10:00:40.202Z,17.08
2022-11-02T10:04:01.407Z,17.75
2022-11-02T10:07:08.439Z,18.02
2022-11-02T10:10:02.048Z,17.70
2022-11-02T10:13:25.129Z,20.33
2022-11-02T10:19:17.384Z,20.67
2022-11-02T10:24:47.822Z,21.30
2022-11-02T10:27:34.654Z,20.92
2022-11-02T10:31:15.424Z,22.65
2022-11-02T10:33:52.789Z,20.38
2022-11-02T10:40:33.567Z,20.90
2022-11-02T10:43:45.195Z,20.88
2022-11-02T10:50:40.320Z,22.48
2022-11-02T10:53:40.033Z,20.63
2022-11-02T10:56:46.754Z,21.58
2022-11-02T10:59:33.943Z,22.17
2022-11-02T11:02:12.140Z,22.05
2022-11-02T11:05:17.257Z,21.17
2022-11-02T11:08:06.178Z,18.08
2022-11-02T11:10:43.881Z,20.92
2022-11-02T11:16:27.074Z,21.52
2022-11-02T11:21:47.549Z,21.42
2022-11-02T11:24:46.992Z,20.45
2022-11-02T11:27:46.629Z,21.50
2022-11-02T11:33:24.007Z,20.45
2022-11-02T11:35:54.627Z,20.73
2022-11-02T11:38:36.836Z,20.67
2022-11-02T11:47:09.709Z,21.65
2022-11-02T11:50:09.672Z,22.30
2022-11-02T11:53:15.715Z,21.63
2022-11-02T11:56:19.397Z,22.52
2022-11-02T12:07:22.764Z,22.63
2022-11-02T12:13:50.545Z,22.15
2022-11-02T12:34:52.886Z,23.65
2022-11-02T12:41:17.784Z,23.90
2022-11-02T12:43:57.517Z,25.75
2022-11-02T12:46:46.094Z,26.07
2022-11-02T12:49:51.440Z,26.85
2022-11-02T12:52:48.994Z,28.55
2022-11-02T12:58:42.829Z,27.83
2022-11-02T13:01:41.641Z,28.55
2022-11-02T13:08:23.191Z,29.83
2022-11-02T13:12:11.671Z,27.02
2022-11-02T13:19:32.725Z,28.95
2022-11-02T13:25:32.446Z,30.95
2022-11-02T13:29:40.125Z,30.42
2022-11-02T13:51:04.785Z,34.33
2022-11-02T14:23:52.608Z,34.22
2022-11-02T15:00:27.479Z,37.42
2022-11-02T15:05:45.300Z,41.37
2022-11-02T15:22:17.340Z,39.97
2022-11-02T15:31:39.184Z,39.53
2022-11-02T15:38:19.141Z,40.50
2022-11-02T15:48:38.924Z,44.58
2022-11-02T15:51:23.625Z,44.72
2022-11-02T16:04:51.083Z,44.25
2022-11-02T16:07:19.420Z,45.92
2022-11-02T16:09:59.825Z,47.97
2022-11-02T16:17:02.561Z,42.08
2022-11-02T16:20:05.531Z,46.50
2022-11-02T16:29:56.437Z,43.53
2022-11-02T16:33:21.256Z,50.40
2022-11-02T16:35:49.143Z,40.70
2022-11-02T16:38:18.673Z,41.72
2022-11-02T16:40:45.915Z,45.45
2022-11-02T16:43:16.378Z,50.08
2022-11-02T16:45:43.856Z,49.53
2022-11-02T16:48:29.074Z,48.85
2022-11-02T16:51:18.228Z,52.33
2022-11-02T16:53:45.377Z,50.35
2022-11-02T16:56:16.962Z,51.58
2022-11-02T16:58:48.815Z,49.15
2022-11-02T17:03:46.165Z,48.70
2022-11-02T17:06:13.096Z,49.60
2022-11-02T17:08:41.909Z,52.58
2022-11-02T17:11:14.838Z,49.20
2022-11-02T17:13:51.291Z,50.67
2022-11-02T17:16:18.364Z,50.45
2022-11-02T17:18:45.235Z,51.75
2022-11-02T17:21:27.475Z,52.67
2022-11-02T17:23:56.127Z,51.47
2022-11-02T17:26:23.347Z,51.17
2022-11-02T17:28:55.174Z,51.47
2022-11-02T17:33:50.913Z,49.28
2022-11-02T17:36:18.459Z,51.00
2022-11-02T17:38:45.553Z,50.40
2022-11-02T17:41:33.959Z,49.35
2022-11-02T17:44:01.484Z,50.67
2022-11-02T17:46:29.187Z,47.05
2022-11-02T17:48:57.694Z,51.42
2022-11-02T17:51:25.299Z,52.85
2022-11-02T17:53:52.424Z,49.72
2022-11-02T17:56:19.345Z,48.05
2022-11-02T17:58:46.548Z,52.38
2022-11-02T18:01:14.166Z,49.55
2022-11-02T18:03:41.214Z,51.97
2022-11-02T18:06:08.242Z,49.83
2022-11-02T18:08:55.042Z,48.70
2022-11-02T18:11:26.344Z,48.10
2022-11-02T18:13:53.691Z,48.60
2022-11-02T18:16:20.754Z,49.65
2022-11-02T18:18:47.611Z,48.58
2022-11-02T18:21:14.497Z,46.13
2022-11-02T18:23:41.660Z,48.53
2022-11-02T18:26:16.250Z,53.03
2022-11-02T18:31:35.323Z,55.90
2022-11-02T18:36:50.645Z,51.20
2022-11-02T18:39:29.863Z,53.25
2022-11-02T18:42:25.577Z,53.72
2022-11-02T18:45:01.150Z,53.67
2022-11-02T18:47:31.153Z,54.60
2022-11-02T18:50:02.016Z,58.13
2022-11-02T18:52:32.939Z,59.83
2022-11-02T18:55:09.131Z,56.08
2022-11-02T18:57:36.178Z,54.75
2022-11-02T19:00:09.418Z,55.22
2022-11-02T19:02:46.102Z,52.53
2022-11-02T19:05:51.094Z,48.65
2022-11-02T19:09:00.152Z,48.67
2022-11-02T19:14:54.680Z,46.33
2022-11-02T19:21:18.322Z,45.17
2022-11-02T19:23:51.000Z,46.65
2022-11-02T19:26:20.127Z,44.53
2022-11-02T19:28:48.328Z,48.28
2022-11-02T19:31:39.964Z,47.30
2022-11-02T19:34:06.949Z,55.17
2022-11-02T19:36:55.223Z,58.55
2022-11-02T19:42:08.072Z,49.75
2022-11-02T19:44:47.464Z,50.97
2022-11-02T19:47:42.694Z,45.28
2022-11-02T19:50:21.388Z,46.92
2022-11-02T19:52:54.480Z,49.40
2022-11-02T19:55:45.529Z,47.08
2022-11-02T19:58:24.731Z,48.78
2022-11-02T20:00:59.555Z,48.70
2022-11-02T20:03:30.958Z,47.67
2022-11-02T20:06:20.048Z,49.30
2022-11-02T20:09:00.566Z,49.35
2022-11-02T20:11:29.977Z,50.22
2022-11-02T20:14:08.663Z,49.10
2022-11-02T20:16:53.845Z,48.28
2022-11-02T20:19:36.760Z,50.10
2022-11-02T20:22:06.445Z,49.08
2022-11-02T20:24:36.119Z,48.15
2022-11-02T20:27:11.715Z,50.20
2022-11-02T20:29:45.514Z,49.33
2022-11-02T20:32:22.279Z,48.92
2022-11-02T20:34:52.758Z,48.13
2022-11-02T20:37:43.597Z,48.10
2022-11-02T20:40:18.858Z,45.50
2022-11-02T20:43:02.501Z,44.28
2022-11-02T20:45:37.752Z,42.63
2022-11-02T20:48:08.723Z,44.33
2022-11-02T20:53:41.018Z,41.17
2022-11-02T20:59:09.277Z,39.33
2022-11-02T21:01:37.539Z,37.47
2022-11-02T21:04:04.640Z,34.67
2022-11-02T21:06:34.815Z,32.85
2022-11-02T21:09:09.003Z,31.35
2022-11-02T21:11:57.972Z,31.00
2022-11-02T21:14:25.331Z,29.73
2022-11-02T21:16:52.709Z,30.95
2022-11-02T21:19:21.022Z,30.30
2022-11-02T21:21:51.824Z,29.77
2022-11-02T21:24:25.560Z,30.23
2022-11-02T21:26:52.684Z,31.13
2022-11-02T21:29:21.310Z,28.55
2022-11-02T21:31:49.004Z,29.10
2022-11-02T21:34:22.617Z,30.45
2022-11-02T21:36:52.401Z,26.70
2022-11-02T21:39:25.869Z,27.15
2022-11-02T21:41:52.889Z,29.42
2022-11-02T21:44:19.864Z,28.80
2022-11-02T21:46:47.993Z,27.67
2022-11-02T21:49:17.127Z,25.83
2022-11-02T21:51:44.286Z,24.60
2022-11-02T21:54:16.320Z,25.58
2022-11-02T21:56:47.301Z,25.05
2022-11-02T21:59:14.704Z,24.85
2022-11-02T22:01:49.759Z,24.55
2022-11-02T22:04:36.646Z,25.27
2022-11-02T22:07:04.881Z,25.88
2022-11-02T22:09:32.415Z,26.38
2022-11-02T22:12:19.241Z,27.65
2022-11-02T22:14:46.218Z,29.33
2022-11-02T22:17:43.253Z,27.23
2022-11-02T22:20:00.914Z,28.92
2022-11-02T22:22:27.842Z,31.00
2022-11-02T22:24:54.743Z,31.90
2022-11-02T22:27:21.810Z,33.25
2022-11-02T22:29:48.791Z,31.30
2022-11-02T22:32:17.975Z,35.97
2022-11-02T22:34:45.337Z,34.47
2022-11-02T22:37:33.759Z,31.98
2022-11-02T22:40:00.700Z,32.58
2022-11-02T22:42:28.107Z,31.58
2022-11-02T22:44:58.412Z,32.80
2022-11-02T22:47:25.425Z,32.58
2022-11-02T22:49:52.345Z,32.58
2022-11-02T22:52:19.285Z,33.67
2022-11-02T22:54:46.153Z,31.48
2022-11-02T22:57:13.109Z,31.02
2022-11-02T22:59:40.198Z,30.20
2022-11-02T23:02:07.183Z,29.73
2022-11-02T23:04:34.096Z,29.55
2022-11-02T23:07:00.974Z,30.42
2022-11-02T23:09:27.935Z,28.05
2022-11-02T23:11:54.768Z,27.13
2022-11-02T23:14:22.696Z,26.90
2022-11-02T23:16:49.607Z,26.25
2022-11-02T23:19:35.330Z,25.10
2022-11-02T23:22:29.931Z,26.15
2022-11-02T23:25:12.198Z,27.65
2022-11-02T23:28:01.566Z,25.90
2022-11-02T23:30:54.939Z,26.83
2022-11-02T23:33:23.821Z,26.48
2022-11-02T23:36:10.405Z,26.27
2022-11-02T23:38:56.984Z,26.80
2022-11-02T23:41:24.822Z,27.75
2022-11-02T23:43:51.828Z,26.77
2022-11-02T23:46:18.889Z,27.23
2022-11-02T23:48:48.365Z,28.95
2022-11-02T23:51:36.701Z,29.55
2022-11-02T23:54:22.095Z,25.85
2022-11-02T23:56:50.066Z,30.10
2022-11-02T23:59:18.387Z,26.50
